F/V Renaissance II — FMEW — position and weather

sailwx.info

Track history (hours):
 
Tides and Currents Weather Stations Pressure Air Temp Water Temp Dewpoint Dewpoint Depression Visibility Wind Speed Wind Dir Waves Ship Positions

F/V Renaissance II

Last reported at 2014-Dec-20 08:30 UTC. Time now 2014-Dec-21 12:10 UTC.
Position N 46°26' W 002°23'.

Length 18 m.

Type: Fishing. MMSI: 228216600.

Date/timePositionNaut miles runAvg speedWind from/ knotsBaromVisibWave heightAir tempDewpointWater temp
2014-Dec-20 08:30N 46°26' W 002°23'1 1.2
2014-Dec-20 07:31N 46°26' W 002°21'9 9.0
2014-Dec-20 06:33N 46°27' W 002°09'9 8.6
2014-Dec-20 05:33N 46°28' W 001°56'6 6.4
2014-Dec-20 04:33N 46°30' W 001°47'0 0.0
2014-Dec-20 03:33N 46°30' W 001°47'0 0.0
2014-Dec-20 02:33N 46°30' W 001°47'0 0.0
2014-Dec-20 01:33N 46°30' W 001°47'0 0.0
2014-Dec-20 00:33N 46°30' W 001°47'0 0.0
2014-Dec-19 23:33N 46°30' W 001°47'0 0.0
2014-Dec-19 22:33N 46°30' W 001°47'0 0.0
2014-Dec-19 21:33N 46°30' W 001°47'0 0.0
2014-Dec-19 20:33N 46°30' W 001°47'0 0.0
2014-Dec-19 19:33N 46°30' W 001°47'0 0.0
2014-Dec-19 18:33N 46°30' W 001°47'0 0.0
2014-Dec-19 17:33N 46°30' W 001°47'0 0.0
2014-Dec-19 16:33N 46°30' W 001°47'0 0.0
2014-Dec-19 15:33N 46°30' W 001°47'7 7.3
2014-Dec-19 14:33N 46°28' W 001°57'8 8.4
2014-Dec-19 13:33N 46°27' W 002°10'3 2.2
2014-Dec-19 12:20N 46°27' W 002°14'0 0.2
2014-Dec-19 11:31N 46°27' W 002°14'2 0.5
2014-Dec-19 06:33N 46°29' W 002°13'9 9.0
2014-Dec-19 05:33N 46°29' W 002°00'9 9.0
2014-Dec-19 04:33N 46°28' W 001°47'1 1.4
2014-Dec-19 03:33N 46°30' W 001°47'0 0.2
2014-Dec-19 02:33N 46°30' W 001°47'0 0.0
2014-Dec-19 01:33N 46°30' W 001°47'0 0.0
2014-Dec-19 00:33N 46°30' W 001°47'0 0.0
2014-Dec-18 23:33N 46°30' W 001°47'0 0.0
2014-Dec-18 22:33N 46°30' W 001°47'0 0.0
2014-Dec-18 21:33N 46°30' W 001°47'0 0.0
2014-Dec-18 20:33N 46°30' W 001°47'2 1.6
2014-Dec-18 19:33N 46°28' W 001°48'9 9.1
2014-Dec-18 18:33N 46°30' W 002°01'9 9.0
2014-Dec-18 17:33N 46°32' W 002°13'5 0.4
2014-Dec-18 06:12N 46°34' W 002°20'5 8.5
2014-Dec-18 05:33N 46°33' W 002°12'9 8.6
2014-Dec-18 04:33N 46°30' W 002°00'8 8.5
2014-Dec-18 03:33N 46°28' W 001°48'2 1.8
2014-Dec-18 02:33N 46°30' W 001°47'0 0.0
2014-Dec-18 01:33N 46°30' W 001°47'0 0.0
2014-Dec-18 00:34N 46°30' W 001°47'0 0.0
2014-Dec-17 23:33N 46°30' W 001°47'0 0.0
2014-Dec-17 22:33N 46°30' W 001°47'0 0.0
2014-Dec-17 21:33N 46°30' W 001°47'0 0.0
2014-Dec-17 20:33N 46°30' W 001°47'0 0.0
2014-Dec-17 19:33N 46°30' W 001°47'0 0.0
2014-Dec-17 18:33N 46°30' W 001°47'0 0.0
2014-Dec-17 17:33N 46°30' W 001°47'0 0.0
2014-Dec-17 16:33N 46°30' W 001°47'0 0.0
2014-Dec-17 15:33N 46°30' W 001°47'0 0.0
2014-Dec-17 14:33N 46°30' W 001°47'0 0.0
2014-Dec-17 13:33N 46°30' W 001°47'0 0.0
2014-Dec-17 12:33N 46°30' W 001°47'0 0.0
2014-Dec-17 11:33N 46°30' W 001°47'0 0.0
2014-Dec-17 10:33N 46°30' W 001°47'0 0.0
2014-Dec-17 09:33N 46°30' W 001°47'0 0.0
2014-Dec-17 08:33N 46°30' W 001°47'0 0.0
2014-Dec-17 07:33N 46°30' W 001°47'0 0.0
2014-Dec-17 06:33N 46°30' W 001°47'0 0.0
2014-Dec-17 05:33N 46°30' W 001°47'0 0.0
2014-Dec-17 04:33N 46°30' W 001°47'0 0.0
2014-Dec-17 03:33N 46°30' W 001°47'0 0.0
2014-Dec-17 02:33N 46°30' W 001°47'0 0.0
2014-Dec-17 01:33N 46°30' W 001°47'0 0.0
2014-Dec-17 00:33N 46°30' W 001°47'0 0.0
2014-Dec-16 23:33N 46°30' W 001°47'0 0.0
2014-Dec-16 22:33N 46°30' W 001°47'0 0.0
2014-Dec-16 21:33N 46°30' W 001°47'0 0.0
2014-Dec-16 20:33N 46°30' W 001°47'1 0.9
2014-Dec-16 19:33N 46°29' W 001°47'9 9.2
2014-Dec-16 18:33N 46°30' W 002°00'9 0.7
2014-Dec-16 05:31N 46°33' W 002°12'9 9.1
2014-Dec-16 04:33N 46°31' W 001°60'9 8.5
2014-Dec-16 03:32N 46°29' W 001°47'1 0.9
2014-Dec-16 02:33N 46°30' W 001°47'0 0.0
2014-Dec-16 01:27N 46°30' W 001°47'0 0.0
2014-Dec-16 00:32N 46°30' W 001°47'0 0.0
2014-Dec-15 23:33N 46°30' W 001°47'0 0.0
2014-Dec-15 22:33N 46°30' W 001°47'0 0.0
2014-Dec-15 21:33N 46°30' W 001°47'0 0.0
2014-Dec-15 20:33N 46°30' W 001°47'0 0.0
2014-Dec-15 19:33N 46°30' W 001°47'2 1.9
2014-Dec-15 18:33N 46°28' W 001°49'12 1.0
2014-Dec-15 06:33N 46°25' W 002°06'8 8.3
2014-Dec-15 05:33N 46°27' W 001°54'5 5.4
2014-Dec-15 04:33N 46°30' W 001°47'0 0.0
2014-Dec-15 03:33N 46°30' W 001°47'0 0.0
2014-Dec-15 02:33N 46°30' W 001°47'0 0.0
2014-Dec-15 01:33N 46°30' W 001°47'0 0.0
2014-Dec-15 00:33N 46°30' W 001°47'0 0.0
2014-Dec-14 23:33N 46°30' W 001°47'0 0.0
2014-Dec-14 22:33N 46°30' W 001°47'0 0.0
2014-Dec-14 21:33N 46°30' W 001°47'0 0.0
2014-Dec-14 20:33N 46°30' W 001°47'0 0.0
2014-Dec-14 19:33N 46°30' W 001°47'0 0.0
2014-Dec-14 18:33N 46°30' W 001°47'0 0.3
2014-Dec-14 17:33N 46°30' W 001°48'9 8.7
2014-Dec-14 16:33N 46°22' W 001°52'8 7.4
2014-Dec-14 15:33N 46°15' W 001°57'6 0.7
2014-Dec-14 07:10N 46°11' W 002°03'3 5.0
2014-Dec-14 06:32N 46°13' W 001°59'7 7.6
2014-Dec-14 05:33N 46°19' W 001°55'9 8.8
2014-Dec-14 04:33N 46°27' W 001°48'3 2.9
2014-Dec-14 03:33N 46°30' W 001°48'0 0.0
2014-Dec-14 02:33N 46°30' W 001°48'0 0.0
2014-Dec-14 01:33N 46°30' W 001°48'0 0.0
2014-Dec-14 00:33N 46°30' W 001°48'0 0.0
2014-Dec-13 23:33N 46°30' W 001°48'0 0.0
2014-Dec-13 22:33N 46°30' W 001°48'0 0.0
2014-Dec-13 21:33N 46°30' W 001°48'0 0.0
2014-Dec-13 20:33N 46°30' W 001°48'0 0.0
2014-Dec-13 19:33N 46°30' W 001°48'3 3.0
2014-Dec-13 18:33N 46°27' W 001°48'10 9.7
2014-Dec-13 17:33N 46°18' W 001°53'8 0.8
2014-Dec-13 07:14N 46°09' W 001°53'6 8.8
2014-Dec-13 06:33N 46°15' W 001°52'9 8.7
2014-Dec-13 05:33N 46°24' W 001°49'6 6.1
2014-Dec-13 04:33N 46°30' W 001°48'0 0.0
2014-Dec-12 10:15N 46°30' W 001°48'0 0.0
2014-Dec-12 09:33N 46°30' W 001°48'0 0.0
2014-Dec-12 08:33N 46°30' W 001°48'0 0.0
2014-Dec-12 07:33N 46°30' W 001°48'0 0.0
2014-Dec-12 06:33N 46°30' W 001°48'0 0.0
2014-Dec-12 05:33N 46°30' W 001°48'0 0.0
2014-Dec-12 04:33N 46°30' W 001°48'0 0.0
2014-Dec-12 03:33N 46°30' W 001°48'0 0.0
2014-Dec-12 02:33N 46°30' W 001°48'0 0.0
2014-Dec-12 01:33N 46°30' W 001°48'0 0.0
2014-Dec-12 00:33N 46°30' W 001°48'0 0.0
2014-Dec-11 23:33N 46°30' W 001°48'0 0.0
2014-Dec-11 22:33N 46°30' W 001°48'0 0.0
2014-Dec-11 21:33N 46°30' W 001°48'0 0.0
2014-Dec-11 20:33N 46°30' W 001°48'0 0.0
2014-Dec-11 19:33N 46°30' W 001°48'0 0.0
2014-Dec-11 18:33N 46°30' W 001°48'0 0.0
2014-Dec-11 17:33N 46°30' W 001°48'0 0.0
2014-Dec-11 16:33N 46°30' W 001°48'0 0.0
2014-Dec-11 15:33N 46°30' W 001°48'0 0.0
2014-Dec-11 14:33N 46°30' W 001°48'4 3.9
2014-Dec-11 13:33N 46°29' W 001°53'9 8.8
2014-Dec-11 12:33N 46°30' W 002°06'10 1.6
2014-Dec-11 06:27N 46°31' W 002°20'7 8.2
2014-Dec-11 05:33N 46°30' W 002°09'8 8.3
2014-Dec-11 04:33N 46°29' W 001°57'7 6.5
2014-Dec-11 03:33N 46°30' W 001°48'0 0.1
2014-Dec-11 02:33N 46°30' W 001°48'0 0.0
2014-Dec-11 01:33N 46°30' W 001°48'0 0.0
2014-Dec-11 00:33N 46°30' W 001°48'0 0.0
2014-Dec-10 23:33N 46°30' W 001°48'0 0.0
2014-Dec-10 22:33N 46°30' W 001°48'0 0.0
2014-Dec-10 21:33N 46°30' W 001°48'0 0.0
2014-Dec-10 20:33N 46°30' W 001°48'0 0.0
2014-Dec-10 19:33N 46°30' W 001°48'3 2.7
2014-Dec-10 18:33N 46°28' W 001°51'10 9.5
2014-Dec-10 17:33N 46°29' W 002°05'  
Track history (hours):
 
Tides and Currents Weather Stations Pressure Air Temp Water Temp Dewpoint Dewpoint Depression Visibility Wind Speed Wind Dir Waves Ship Positions

F/V Renaissance II

Last reported at 2014-Dec-20 08:30 UTC. Time now 2014-Dec-21 12:10 UTC.
Position N 46°26' W 002°23'.

Length 18 m.

Type: Fishing. MMSI: 228216600.

Date/timePositionNaut miles runAvg speedWind from/ knotsBaromVisibWave heightAir tempDewpointWater temp
2014-Dec-20 08:30N 46°26' W 002°23'1 1.2
2014-Dec-20 07:31N 46°26' W 002°21'9 9.0
2014-Dec-20 06:33N 46°27' W 002°09'9 8.6
2014-Dec-20 05:33N 46°28' W 001°56'6 6.4
2014-Dec-20 04:33N 46°30' W 001°47'0 0.0
2014-Dec-20 03:33N 46°30' W 001°47'0 0.0
2014-Dec-20 02:33N 46°30' W 001°47'0 0.0
2014-Dec-20 01:33N 46°30' W 001°47'0 0.0
2014-Dec-20 00:33N 46°30' W 001°47'0 0.0
2014-Dec-19 23:33N 46°30' W 001°47'0 0.0
2014-Dec-19 22:33N 46°30' W 001°47'0 0.0
2014-Dec-19 21:33N 46°30' W 001°47'0 0.0
2014-Dec-19 20:33N 46°30' W 001°47'0 0.0
2014-Dec-19 19:33N 46°30' W 001°47'0 0.0
2014-Dec-19 18:33N 46°30' W 001°47'0 0.0
2014-Dec-19 17:33N 46°30' W 001°47'0 0.0
2014-Dec-19 16:33N 46°30' W 001°47'0 0.0
2014-Dec-19 15:33N 46°30' W 001°47'7 7.3
2014-Dec-19 14:33N 46°28' W 001°57'8 8.4
2014-Dec-19 13:33N 46°27' W 002°10'3 2.2
2014-Dec-19 12:20N 46°27' W 002°14'0 0.2
2014-Dec-19 11:31N 46°27' W 002°14'2 0.5
2014-Dec-19 06:33N 46°29' W 002°13'9 9.0
2014-Dec-19 05:33N 46°29' W 002°00'9 9.0
2014-Dec-19 04:33N 46°28' W 001°47'1 1.4
2014-Dec-19 03:33N 46°30' W 001°47'0 0.2
2014-Dec-19 02:33N 46°30' W 001°47'0 0.0
2014-Dec-19 01:33N 46°30' W 001°47'0 0.0
2014-Dec-19 00:33N 46°30' W 001°47'0 0.0
2014-Dec-18 23:33N 46°30' W 001°47'0 0.0
2014-Dec-18 22:33N 46°30' W 001°47'0 0.0
2014-Dec-18 21:33N 46°30' W 001°47'0 0.0
2014-Dec-18 20:33N 46°30' W 001°47'2 1.6
2014-Dec-18 19:33N 46°28' W 001°48'9 9.1
2014-Dec-18 18:33N 46°30' W 002°01'9 9.0
2014-Dec-18 17:33N 46°32' W 002°13'5 0.4
2014-Dec-18 06:12N 46°34' W 002°20'5 8.5
2014-Dec-18 05:33N 46°33' W 002°12'9 8.6
2014-Dec-18 04:33N 46°30' W 002°00'8 8.5
2014-Dec-18 03:33N 46°28' W 001°48'2 1.8
2014-Dec-18 02:33N 46°30' W 001°47'0 0.0
2014-Dec-18 01:33N 46°30' W 001°47'0 0.0
2014-Dec-18 00:34N 46°30' W 001°47'0 0.0
2014-Dec-17 23:33N 46°30' W 001°47'0 0.0
2014-Dec-17 22:33N 46°30' W 001°47'0 0.0
2014-Dec-17 21:33N 46°30' W 001°47'0 0.0
2014-Dec-17 20:33N 46°30' W 001°47'0 0.0
2014-Dec-17 19:33N 46°30' W 001°47'0 0.0
2014-Dec-17 18:33N 46°30' W 001°47'0 0.0
2014-Dec-17 17:33N 46°30' W 001°47'0 0.0
2014-Dec-17 16:33N 46°30' W 001°47'0 0.0
2014-Dec-17 15:33N 46°30' W 001°47'0 0.0
2014-Dec-17 14:33N 46°30' W 001°47'0 0.0
2014-Dec-17 13:33N 46°30' W 001°47'0 0.0
2014-Dec-17 12:33N 46°30' W 001°47'0 0.0
2014-Dec-17 11:33N 46°30' W 001°47'0 0.0
2014-Dec-17 10:33N 46°30' W 001°47'0 0.0
2014-Dec-17 09:33N 46°30' W 001°47'0 0.0
2014-Dec-17 08:33N 46°30' W 001°47'0 0.0
2014-Dec-17 07:33N 46°30' W 001°47'0 0.0
2014-Dec-17 06:33N 46°30' W 001°47'0 0.0
2014-Dec-17 05:33N 46°30' W 001°47'0 0.0
2014-Dec-17 04:33N 46°30' W 001°47'0 0.0
2014-Dec-17 03:33N 46°30' W 001°47'0 0.0
2014-Dec-17 02:33N 46°30' W 001°47'0 0.0
2014-Dec-17 01:33N 46°30' W 001°47'0 0.0
2014-Dec-17 00:33N 46°30' W 001°47'0 0.0
2014-Dec-16 23:33N 46°30' W 001°47'0 0.0
2014-Dec-16 22:33N 46°30' W 001°47'0 0.0
2014-Dec-16 21:33N 46°30' W 001°47'0 0.0
2014-Dec-16 20:33N 46°30' W 001°47'1 0.9
2014-Dec-16 19:33N 46°29' W 001°47'9 9.2
2014-Dec-16 18:33N 46°30' W 002°00'9 0.7
2014-Dec-16 05:31N 46°33' W 002°12'9 9.1
2014-Dec-16 04:33N 46°31' W 001°60'9 8.5
2014-Dec-16 03:32N 46°29' W 001°47'1 0.9
2014-Dec-16 02:33N 46°30' W 001°47'0 0.0
2014-Dec-16 01:27N 46°30' W 001°47'0 0.0
2014-Dec-16 00:32N 46°30' W 001°47'0 0.0
2014-Dec-15 23:33N 46°30' W 001°47'0 0.0
2014-Dec-15 22:33N 46°30' W 001°47'0 0.0
2014-Dec-15 21:33N 46°30' W 001°47'0 0.0
2014-Dec-15 20:33N 46°30' W 001°47'0 0.0
2014-Dec-15 19:33N 46°30' W 001°47'2 1.9
2014-Dec-15 18:33N 46°28' W 001°49'12 1.0
2014-Dec-15 06:33N 46°25' W 002°06'8 8.3
2014-Dec-15 05:33N 46°27' W 001°54'5 5.4
2014-Dec-15 04:33N 46°30' W 001°47'0 0.0
2014-Dec-15 03:33N 46°30' W 001°47'0 0.0
2014-Dec-15 02:33N 46°30' W 001°47'0 0.0
2014-Dec-15 01:33N 46°30' W 001°47'0 0.0
2014-Dec-15 00:33N 46°30' W 001°47'0 0.0
2014-Dec-14 23:33N 46°30' W 001°47'0 0.0
2014-Dec-14 22:33N 46°30' W 001°47'0 0.0
2014-Dec-14 21:33N 46°30' W 001°47'0 0.0
2014-Dec-14 20:33N 46°30' W 001°47'0 0.0
2014-Dec-14 19:33N 46°30' W 001°47'0 0.0
2014-Dec-14 18:33N 46°30' W 001°47'0 0.3
2014-Dec-14 17:33N 46°30' W 001°48'9 8.7
2014-Dec-14 16:33N 46°22' W 001°52'8 7.4
2014-Dec-14 15:33N 46°15' W 001°57'6 0.7
2014-Dec-14 07:10N 46°11' W 002°03'3 5.0
2014-Dec-14 06:32N 46°13' W 001°59'7 7.6
2014-Dec-14 05:33N 46°19' W 001°55'9 8.8
2014-Dec-14 04:33N 46°27' W 001°48'3 2.9
2014-Dec-14 03:33N 46°30' W 001°48'0 0.0
2014-Dec-14 02:33N 46°30' W 001°48'0 0.0
2014-Dec-14 01:33N 46°30' W 001°48'0 0.0
2014-Dec-14 00:33N 46°30' W 001°48'0 0.0
2014-Dec-13 23:33N 46°30' W 001°48'0 0.0
2014-Dec-13 22:33N 46°30' W 001°48'0 0.0
2014-Dec-13 21:33N 46°30' W 001°48'0 0.0
2014-Dec-13 20:33N 46°30' W 001°48'0 0.0
2014-Dec-13 19:33N 46°30' W 001°48'3 3.0
2014-Dec-13 18:33N 46°27' W 001°48'10 9.7
2014-Dec-13 17:33N 46°18' W 001°53'8 0.8
2014-Dec-13 07:14N 46°09' W 001°53'6 8.8
2014-Dec-13 06:33N 46°15' W 001°52'9 8.7
2014-Dec-13 05:33N 46°24' W 001°49'6 6.1
2014-Dec-13 04:33N 46°30' W 001°48'0 0.0
2014-Dec-12 10:15N 46°30' W 001°48'0 0.0
2014-Dec-12 09:33N 46°30' W 001°48'0 0.0
2014-Dec-12 08:33N 46°30' W 001°48'0 0.0
2014-Dec-12 07:33N 46°30' W 001°48'0 0.0
2014-Dec-12 06:33N 46°30' W 001°48'0 0.0
2014-Dec-12 05:33N 46°30' W 001°48'0 0.0
2014-Dec-12 04:33N 46°30' W 001°48'0 0.0
2014-Dec-12 03:33N 46°30' W 001°48'0 0.0
2014-Dec-12 02:33N 46°30' W 001°48'0 0.0
2014-Dec-12 01:33N 46°30' W 001°48'0 0.0
2014-Dec-12 00:33N 46°30' W 001°48'0 0.0
2014-Dec-11 23:33N 46°30' W 001°48'0 0.0
2014-Dec-11 22:33N 46°30' W 001°48'0 0.0
2014-Dec-11 21:33N 46°30' W 001°48'0 0.0
2014-Dec-11 20:33N 46°30' W 001°48'0 0.0
2014-Dec-11 19:33N 46°30' W 001°48'0 0.0
2014-Dec-11 18:33N 46°30' W 001°48'0 0.0
2014-Dec-11 17:33N 46°30' W 001°48'0 0.0
2014-Dec-11 16:33N 46°30' W 001°48'0 0.0
2014-Dec-11 15:33N 46°30' W 001°48'0 0.0
2014-Dec-11 14:33N 46°30' W 001°48'4 3.9
2014-Dec-11 13:33N 46°29' W 001°53'9 8.8
2014-Dec-11 12:33N 46°30' W 002°06'10 1.6
2014-Dec-11 06:27N 46°31' W 002°20'7 8.2
2014-Dec-11 05:33N 46°30' W 002°09'8 8.3
2014-Dec-11 04:33N 46°29' W 001°57'7 6.5
2014-Dec-11 03:33N 46°30' W 001°48'0 0.1
2014-Dec-11 02:33N 46°30' W 001°48'0 0.0
2014-Dec-11 01:33N 46°30' W 001°48'0 0.0
2014-Dec-11 00:33N 46°30' W 001°48'0 0.0
2014-Dec-10 23:33N 46°30' W 001°48'0 0.0
2014-Dec-10 22:33N 46°30' W 001°48'0 0.0
2014-Dec-10 21:33N 46°30' W 001°48'0 0.0
2014-Dec-10 20:33N 46°30' W 001°48'0 0.0
2014-Dec-10 19:33N 46°30' W 001°48'3 2.7
2014-Dec-10 18:33N 46°28' W 001°51'10 9.5
2014-Dec-10 17:33N 46°29' W 002°05'  

Dump ship's entire track history